createdAt,value
2022-10-13T00:00:50.855Z,9.63
2022-10-13T00:03:53.613Z,9.67
2022-10-13T00:06:55.954Z,9.75
2022-10-13T00:10:01.800Z,9.77
2022-10-13T00:13:05.024Z,9.79
2022-10-13T00:16:07.880Z,9.74
2022-10-13T00:19:14.888Z,9.72
2022-10-13T00:22:17.697Z,9.55
2022-10-13T00:25:21.722Z,9.48
2022-10-13T00:28:24.738Z,9.51
2022-10-13T00:31:30.209Z,9.59
2022-10-13T00:34:32.827Z,9.53
2022-10-13T00:37:35.279Z,9.43
2022-10-13T00:40:56.076Z,9.26
2022-10-13T00:44:04.805Z,9.19
2022-10-13T00:47:09.885Z,9.19
2022-10-13T00:50:16.126Z,9.23
2022-10-13T00:53:26.347Z,9.19
2022-10-13T00:56:29.635Z,9.24
2022-10-13T00:59:32.311Z,9.34
2022-10-13T01:02:37.164Z,9.31
2022-10-13T01:05:41.361Z,9.37
2022-10-13T01:08:43.913Z,9.40
2022-10-13T01:12:11.950Z,9.38
2022-10-13T01:15:29.222Z,9.11
2022-10-13T01:18:49.978Z,9.10
2022-10-13T01:22:20.416Z,9.21
2022-10-13T01:25:43.613Z,9.21
2022-10-13T01:29:12.075Z,9.30
2022-10-13T01:32:44.693Z,9.37
2022-10-13T01:35:50.588Z,9.30
2022-10-13T01:39:16.917Z,9.29
2022-10-13T01:42:33.570Z,9.40
2022-10-13T01:45:49.609Z,9.44
2022-10-13T01:48:54.638Z,9.41
2022-10-13T01:52:00.143Z,9.43
2022-10-13T01:55:11.431Z,9.36
2022-10-13T01:58:14.100Z,9.28
2022-10-13T02:01:25.730Z,9.21
2022-10-13T02:04:38.253Z,9.26
2022-10-13T02:07:47.776Z,9.31
2022-10-13T02:11:05.299Z,9.35
2022-10-13T02:14:17.366Z,9.43
2022-10-13T02:17:20.281Z,9.47
2022-10-13T02:20:23.469Z,9.44
2022-10-13T02:23:26.350Z,9.45
2022-10-13T02:26:30.810Z,9.49
2022-10-13T02:29:56.389Z,9.54
2022-10-13T02:33:03.390Z,9.61
2022-10-13T02:36:06.250Z,9.63
2022-10-13T02:39:11.360Z,9.65
2022-10-13T02:42:13.944Z,9.67
2022-10-13T02:45:16.327Z,9.60
2022-10-13T02:48:18.705Z,9.63
2022-10-13T02:51:21.152Z,9.68
2022-10-13T02:54:23.595Z,9.67
2022-10-13T02:57:26.550Z,9.75
2022-10-13T03:00:29.329Z,9.75
2022-10-13T03:03:31.631Z,9.72
2022-10-13T03:06:38.359Z,9.75
2022-10-13T03:09:41.237Z,9.85
2022-10-13T03:12:43.768Z,9.89
2022-10-13T03:15:48.611Z,9.93
2022-10-13T03:18:50.873Z,9.96
2022-10-13T03:21:53.327Z,9.98
2022-10-13T03:24:55.758Z,10.00
2022-10-13T03:27:58.215Z,10.05
2022-10-13T03:31:05.738Z,10.03
2022-10-13T03:34:12.219Z,10.01
2022-10-13T03:37:14.566Z,9.93
2022-10-13T03:40:17.950Z,9.92
2022-10-13T03:43:20.285Z,9.93
2022-10-13T03:46:25.729Z,9.97
2022-10-13T03:49:28.836Z,9.98
2022-10-13T03:52:33.797Z,9.99
2022-10-13T03:55:36.180Z,10.01
2022-10-13T03:58:38.541Z,10.06
2022-10-13T04:01:41.223Z,10.06
2022-10-13T04:04:43.795Z,10.09
2022-10-13T04:07:46.459Z,10.12
2022-10-13T04:11:12.994Z,10.13
2022-10-13T04:14:15.923Z,10.13
2022-10-13T04:17:18.422Z,10.17
2022-10-13T04:20:20.829Z,10.19
2022-10-13T04:23:23.562Z,10.21
2022-10-13T04:26:28.852Z,10.23
2022-10-13T04:29:32.697Z,10.30
2022-10-13T04:32:35.225Z,10.33
2022-10-13T04:35:42.345Z,10.28
2022-10-13T04:38:45.111Z,10.29
2022-10-13T04:41:47.690Z,10.28
2022-10-13T04:44:50.832Z,10.23
2022-10-13T04:47:56.578Z,10.26
2022-10-13T04:51:15.009Z,10.27
2022-10-13T04:54:17.530Z,10.25
2022-10-13T04:57:20.146Z,10.31
2022-10-13T05:00:22.293Z,10.32
2022-10-13T05:03:26.672Z,10.37
2022-10-13T05:06:33.716Z,10.39
2022-10-13T05:09:36.591Z,10.39
2022-10-13T05:12:46.765Z,10.41
2022-10-13T05:15:49.184Z,10.41
2022-10-13T05:18:56.000Z,10.40
2022-10-13T05:21:58.444Z,10.41
2022-10-13T05:25:01.046Z,10.41
2022-10-13T05:28:08.516Z,10.47
2022-10-13T05:31:21.826Z,10.53
2022-10-13T05:34:24.619Z,10.45
2022-10-13T05:37:27.174Z,10.42
2022-10-13T05:40:30.012Z,10.48
2022-10-13T05:43:37.669Z,10.57
2022-10-13T05:46:40.206Z,10.59
2022-10-13T05:49:42.713Z,10.66
2022-10-13T05:52:45.737Z,10.73
2022-10-13T05:55:48.149Z,10.89
2022-10-13T05:58:54.201Z,11.00
2022-10-13T06:01:56.842Z,11.05
2022-10-13T06:05:01.104Z,11.04
2022-10-13T06:08:03.926Z,11.14
2022-10-13T06:11:06.675Z,11.21
2022-10-13T06:14:09.592Z,11.28
2022-10-13T06:17:11.952Z,11.35
2022-10-13T06:20:18.479Z,11.45
2022-10-13T06:23:20.839Z,11.51
2022-10-13T06:26:23.717Z,11.65
2022-10-13T06:29:31.377Z,11.67
2022-10-13T06:32:34.201Z,11.83
2022-10-13T06:35:37.302Z,11.92
2022-10-13T06:38:39.751Z,11.97
2022-10-13T06:41:42.213Z,12.07
2022-10-13T06:44:45.326Z,12.16
2022-10-13T06:47:50.753Z,12.30
2022-10-13T06:50:53.901Z,12.43
2022-10-13T06:53:57.479Z,12.50
2022-10-13T06:57:05.176Z,12.55
2022-10-13T07:00:10.968Z,12.56
2022-10-13T07:03:14.241Z,12.63
2022-10-13T07:06:17.299Z,12.61
2022-10-13T07:09:21.316Z,12.66
2022-10-13T07:12:24.129Z,12.71
2022-10-13T07:15:27.197Z,12.75
2022-10-13T07:18:29.628Z,12.65
2022-10-13T07:21:37.244Z,12.64
2022-10-13T07:24:39.731Z,12.69
2022-10-13T07:27:42.696Z,12.91
2022-10-13T07:30:45.105Z,12.96
2022-10-13T07:33:49.859Z,13.08
2022-10-13T07:36:52.705Z,13.30
2022-10-13T07:39:55.716Z,13.42
2022-10-13T07:43:00.523Z,13.46
2022-10-13T07:46:07.488Z,13.64
2022-10-13T07:49:12.475Z,14.08
2022-10-13T07:52:18.485Z,13.76
2022-10-13T07:55:21.346Z,13.52
2022-10-13T07:58:26.706Z,13.55
2022-10-13T08:01:29.373Z,13.38
2022-10-13T08:04:36.031Z,13.47
2022-10-13T08:07:39.678Z,13.54
2022-10-13T08:10:42.148Z,13.66
2022-10-13T08:13:53.054Z,13.64
2022-10-13T08:16:58.822Z,13.69
2022-10-13T08:20:01.486Z,13.62
2022-10-13T08:23:07.163Z,13.60
2022-10-13T08:26:17.564Z,13.59
2022-10-13T08:29:22.641Z,13.88
2022-10-13T08:32:28.734Z,13.83
2022-10-13T08:35:34.936Z,14.01
2022-10-13T08:38:37.857Z,14.16
2022-10-13T08:41:44.391Z,14.29
2022-10-13T08:45:22.178Z,14.67
2022-10-13T08:48:25.635Z,14.65
2022-10-13T08:51:32.167Z,14.51
2022-10-13T08:54:36.118Z,15.07
2022-10-13T08:57:39.013Z,14.88
2022-10-13T09:00:42.829Z,14.95
2022-10-13T09:04:14.709Z,14.99
2022-10-13T09:07:27.667Z,14.66
2022-10-13T09:10:30.564Z,14.95
2022-10-13T09:13:34.896Z,15.38
2022-10-13T09:16:38.974Z,15.28
2022-10-13T09:19:46.938Z,15.42
2022-10-13T09:23:07.321Z,15.75
2022-10-13T09:26:17.337Z,16.07
2022-10-13T09:29:29.538Z,15.88
2022-10-13T09:32:35.966Z,15.83
2022-10-13T09:35:45.624Z,16.31
2022-10-13T09:39:06.965Z,16.34
2022-10-13T09:42:28.335Z,15.70
2022-10-13T09:45:33.796Z,15.79
2022-10-13T09:48:37.461Z,15.65
2022-10-13T09:51:42.900Z,15.86
2022-10-13T09:54:59.266Z,15.99
2022-10-13T09:58:17.451Z,15.93
2022-10-13T10:01:27.168Z,16.54
2022-10-13T10:04:37.082Z,16.65
2022-10-13T10:07:39.535Z,16.23
2022-10-13T10:10:45.171Z,16.28
2022-10-13T10:13:50.414Z,16.03
2022-10-13T10:17:02.107Z,16.83
2022-10-13T10:20:22.564Z,17.00
2022-10-13T10:23:49.735Z,17.13
2022-10-13T10:26:57.646Z,16.89
2022-10-13T10:30:06.711Z,16.82
2022-10-13T10:33:42.874Z,16.67
2022-10-13T10:37:01.316Z,16.91
2022-10-13T10:40:08.045Z,16.85
2022-10-13T10:43:45.905Z,17.15
2022-10-13T10:46:56.005Z,16.93
2022-10-13T10:50:07.698Z,16.86
2022-10-13T10:53:18.472Z,17.01
2022-10-13T10:56:39.996Z,16.87
2022-10-13T11:03:48.671Z,16.75
2022-10-13T11:06:51.553Z,17.07
2022-10-13T11:09:57.875Z,17.43
2022-10-13T11:13:00.298Z,17.29
2022-10-13T11:16:35.863Z,16.96
2022-10-13T11:19:41.104Z,16.78
2022-10-13T11:23:03.448Z,17.38
2022-10-13T11:26:33.608Z,17.87
2022-10-13T11:29:49.300Z,17.85
2022-10-13T11:32:57.825Z,17.70
2022-10-13T11:36:33.259Z,17.73
2022-10-13T11:39:42.821Z,17.89
2022-10-13T11:42:58.326Z,17.48
2022-10-13T11:46:26.375Z,17.53
2022-10-13T11:49:58.393Z,17.55
2022-10-13T11:53:01.420Z,17.37
2022-10-13T11:56:04.002Z,17.67
2022-10-13T11:59:17.950Z,17.74
2022-10-13T12:02:24.397Z,17.79
2022-10-13T12:05:29.221Z,17.57
2022-10-13T12:08:35.594Z,17.65
2022-10-13T12:11:38.407Z,17.65
2022-10-13T12:14:45.803Z,17.73
2022-10-13T12:17:50.525Z,17.46
2022-10-13T12:20:55.523Z,17.31
2022-10-13T12:24:08.983Z,18.00
2022-10-13T12:27:21.625Z,17.89
2022-10-13T12:30:30.538Z,17.95
2022-10-13T12:33:36.712Z,17.99
2022-10-13T12:36:41.483Z,17.79
2022-10-13T12:39:47.869Z,17.75
2022-10-13T12:42:52.121Z,17.62
2022-10-13T12:45:55.109Z,17.42
2022-10-13T12:49:08.624Z,17.52
2022-10-13T12:52:17.050Z,17.24
2022-10-13T12:55:21.179Z,17.79
2022-10-13T12:58:33.037Z,18.14
2022-10-13T13:01:35.840Z,18.47
2022-10-13T13:04:38.933Z,18.27
2022-10-13T13:07:41.648Z,18.19
2022-10-13T13:11:01.601Z,18.19
2022-10-13T13:14:36.130Z,17.93
2022-10-13T13:17:57.115Z,18.18
2022-10-13T13:21:02.750Z,18.71
2022-10-13T13:24:16.193Z,18.58
2022-10-13T13:27:41.434Z,18.71
2022-10-13T13:30:44.503Z,18.79
2022-10-13T13:33:48.133Z,18.71
2022-10-13T13:36:51.555Z,18.60
2022-10-13T13:39:54.338Z,18.53
2022-10-13T13:42:57.109Z,18.44
2022-10-13T13:46:07.885Z,18.38
2022-10-13T13:49:12.281Z,18.07
2022-10-13T13:52:15.486Z,18.20
2022-10-13T13:55:18.300Z,18.20
2022-10-13T13:58:21.435Z,18.02
2022-10-13T14:01:26.368Z,17.84
2022-10-13T14:04:29.340Z,17.71
2022-10-13T14:07:32.615Z,17.52
2022-10-13T14:10:36.286Z,17.51
2022-10-13T14:13:40.178Z,17.54
2022-10-13T14:16:43.516Z,17.46
2022-10-13T14:19:47.003Z,17.53
2022-10-13T14:22:53.219Z,17.52
2022-10-13T14:25:55.898Z,17.61
2022-10-13T14:28:59.958Z,17.62
2022-10-13T14:32:03.779Z,17.54
2022-10-13T14:35:08.244Z,17.45
2022-10-13T14:38:11.881Z,17.34
2022-10-13T14:41:20.954Z,17.37
2022-10-13T14:44:26.079Z,17.28
2022-10-13T14:47:29.960Z,17.20
2022-10-13T14:50:33.653Z,17.17
2022-10-13T14:53:41.702Z,17.09
2022-10-13T14:56:45.195Z,17.02
2022-10-13T14:59:48.323Z,17.04
2022-10-13T15:02:51.016Z,17.01
2022-10-13T15:05:57.376Z,16.98
2022-10-13T15:09:00.646Z,16.89
2022-10-13T15:12:03.512Z,16.75
2022-10-13T15:15:08.122Z,16.61
2022-10-13T15:18:10.871Z,16.47
2022-10-13T15:21:15.624Z,16.39
2022-10-13T15:24:18.994Z,16.13
2022-10-13T15:27:27.690Z,16.07
2022-10-13T15:30:36.287Z,15.93
2022-10-13T15:33:52.244Z,15.85
2022-10-13T15:36:56.096Z,15.80
2022-10-13T15:39:59.337Z,15.73
2022-10-13T15:43:02.573Z,15.57
2022-10-13T15:46:07.478Z,15.34
2022-10-13T15:49:10.165Z,15.25
2022-10-13T15:52:13.172Z,15.11
2022-10-13T15:55:15.471Z,15.02
2022-10-13T15:58:18.449Z,14.92
2022-10-13T16:01:21.186Z,14.81
2022-10-13T16:04:23.934Z,14.72
2022-10-13T16:07:26.525Z,14.58
2022-10-13T16:10:29.265Z,14.46
2022-10-13T16:13:31.800Z,14.27
2022-10-13T16:16:34.456Z,14.20
2022-10-13T16:19:37.624Z,14.14
2022-10-13T16:22:40.149Z,13.93
2022-10-13T16:25:48.302Z,13.90
2022-10-13T16:28:55.289Z,13.91
2022-10-13T16:32:01.647Z,13.91
2022-10-13T16:35:04.672Z,13.86
2022-10-13T16:38:08.013Z,13.76
2022-10-13T16:41:14.431Z,13.53
2022-10-13T16:44:17.599Z,13.55
2022-10-13T16:47:20.990Z,13.61
2022-10-13T16:50:25.270Z,13.64
2022-10-13T16:53:30.779Z,13.70
2022-10-13T16:56:34.352Z,13.53
2022-10-13T16:59:36.986Z,13.24
2022-10-13T17:02:39.960Z,13.12
2022-10-13T17:05:43.009Z,13.09
2022-10-13T17:08:45.960Z,13.05
2022-10-13T17:11:49.078Z,13.13
2022-10-13T17:14:51.599Z,13.02
2022-10-13T17:17:54.925Z,12.98
2022-10-13T17:21:00.203Z,12.89
2022-10-13T17:24:03.450Z,12.86
2022-10-13T17:27:07.590Z,12.89
2022-10-13T17:30:12.497Z,12.79
2022-10-13T17:33:15.737Z,12.74
2022-10-13T17:36:25.295Z,12.64
2022-10-13T17:39:28.504Z,12.57
2022-10-13T17:42:31.922Z,12.50
2022-10-13T17:45:38.708Z,12.52
2022-10-13T17:48:44.698Z,12.55
2022-10-13T17:51:51.138Z,12.58
2022-10-13T17:54:57.850Z,12.64
2022-10-13T17:58:04.516Z,12.65
2022-10-13T18:01:16.813Z,12.61
2022-10-13T18:04:21.332Z,12.63
2022-10-13T18:07:30.002Z,12.62
2022-10-13T18:11:03.518Z,12.59
2022-10-13T18:14:01.298Z,12.58
2022-10-13T18:17:05.319Z,12.64
2022-10-13T18:20:09.513Z,12.63
2022-10-13T18:23:34.469Z,12.60
2022-10-13T18:26:36.946Z,12.48
2022-10-13T18:29:39.823Z,12.47
2022-10-13T18:32:41.935Z,12.32
2022-10-13T18:35:45.545Z,12.22
2022-10-13T18:38:48.164Z,12.21
2022-10-13T18:41:51.027Z,12.14
2022-10-13T18:44:54.153Z,12.18
2022-10-13T18:47:57.406Z,12.07
2022-10-13T18:51:09.640Z,11.96
2022-10-13T18:54:13.051Z,11.94
2022-10-13T18:57:15.141Z,11.93
2022-10-13T19:00:18.377Z,11.94
2022-10-13T19:03:20.910Z,11.82
2022-10-13T19:06:29.703Z,11.73
2022-10-13T19:09:32.114Z,11.67
2022-10-13T19:12:35.374Z,11.70
2022-10-13T19:15:40.600Z,11.61
2022-10-13T19:18:43.258Z,11.67
2022-10-13T19:21:46.050Z,11.67
2022-10-13T19:24:48.927Z,11.59
2022-10-13T19:27:52.772Z,11.63
2022-10-13T19:30:58.783Z,11.66
2022-10-13T19:34:01.729Z,11.70
2022-10-13T19:37:05.527Z,11.67
2022-10-13T19:40:08.530Z,11.59
2022-10-13T19:43:11.357Z,11.59
2022-10-13T19:46:13.823Z,11.58
2022-10-13T19:49:18.544Z,11.54
2022-10-13T19:52:21.549Z,11.49
2022-10-13T19:55:26.934Z,11.39
2022-10-13T19:58:30.383Z,11.30
2022-10-13T20:01:33.343Z,11.29
2022-10-13T20:04:36.938Z,11.27
2022-10-13T20:07:39.090Z,11.20
2022-10-13T20:10:44.602Z,11.16
2022-10-13T20:13:47.893Z,11.16
2022-10-13T20:16:50.247Z,11.12
2022-10-13T20:19:52.778Z,11.07
2022-10-13T20:22:55.302Z,11.08
2022-10-13T20:26:05.268Z,11.00
2022-10-13T20:29:09.458Z,11.06
2022-10-13T20:32:11.423Z,11.03
2022-10-13T20:35:13.296Z,11.00
2022-10-13T20:38:15.490Z,11.03
2022-10-13T20:41:20.549Z,11.01
2022-10-13T20:44:22.740Z,10.91
2022-10-13T20:47:24.787Z,10.76
2022-10-13T20:50:28.881Z,10.70
2022-10-13T20:53:30.965Z,10.74
2022-10-13T20:56:33.057Z,10.72
2022-10-13T20:59:36.027Z,10.77
2022-10-13T21:02:38.022Z,10.72
2022-10-13T21:05:40.311Z,10.66
2022-10-13T21:08:45.348Z,10.72
2022-10-13T21:11:47.784Z,10.73
2022-10-13T21:14:49.594Z,10.89
2022-10-13T21:17:52.590Z,11.05
2022-10-13T21:20:54.571Z,11.13
2022-10-13T21:24:02.048Z,11.13
2022-10-13T21:27:04.014Z,11.10
2022-10-13T21:30:06.677Z,11.09
2022-10-13T21:33:08.679Z,11.07
2022-10-13T21:36:11.948Z,10.99
2022-10-13T21:39:14.300Z,11.00
2022-10-13T21:42:16.360Z,11.09
2022-10-13T21:45:18.797Z,11.17
2022-10-13T21:48:21.048Z,10.98
2022-10-13T21:51:29.804Z,10.94
2022-10-13T21:54:31.722Z,10.91
2022-10-13T21:57:33.710Z,10.84
2022-10-13T22:00:35.907Z,10.76
2022-10-13T22:03:38.096Z,10.72
2022-10-13T22:06:40.923Z,10.64
2022-10-13T22:09:42.824Z,10.58
2022-10-13T22:12:44.641Z,10.49
2022-10-13T22:15:46.487Z,10.58
2022-10-13T22:18:55.294Z,10.63
2022-10-13T22:21:57.346Z,10.65
2022-10-13T22:25:01.559Z,10.55
2022-10-13T22:28:07.107Z,10.47
2022-10-13T22:31:12.195Z,10.36
2022-10-13T22:34:14.662Z,10.32
2022-10-13T22:37:17.062Z,10.33
2022-10-13T22:40:19.639Z,10.24
2022-10-13T22:43:21.451Z,10.32
2022-10-13T22:46:26.645Z,10.28
2022-10-13T22:49:28.419Z,10.24
2022-10-13T22:52:30.379Z,10.11
2022-10-13T22:55:32.087Z,10.18
2022-10-13T22:58:33.947Z,10.05
2022-10-13T23:01:36.968Z,10.06
2022-10-13T23:04:38.749Z,10.06
2022-10-13T23:07:40.489Z,10.09
2022-10-13T23:10:43.460Z,10.04
2022-10-13T23:13:45.638Z,10.06
2022-10-13T23:16:48.551Z,10.13
2022-10-13T23:19:50.711Z,10.02
2022-10-13T23:22:52.461Z,10.00
2022-10-13T23:25:54.318Z,10.03
2022-10-13T23:28:57.272Z,10.04
2022-10-13T23:31:59.807Z,9.99
2022-10-13T23:35:01.754Z,9.97
2022-10-13T23:38:07.857Z,10.00
2022-10-13T23:41:13.050Z,10.00
2022-10-13T23:44:15.644Z,10.07
2022-10-13T23:47:19.014Z,10.07
2022-10-13T23:50:20.987Z,10.03
2022-10-13T23:53:23.643Z,10.02
2022-10-13T23:56:25.411Z,10.05
2022-10-13T23:59:27.619Z,10.13
